Time;durP1;ratioP1;P1;durP2;ratioP2;P2;SDS_P1;SDS_P2;PMS_P1;PMS_P2;Temp;Humidity;BMP_temperature;BMP_pressure;BME280_temperature;BME280_humidity;BME280_pressure;Samples;Min_cycle;Max_cycle;Signal;HPM_P1;HPM_P2
2022/12/21 00:01:55;;;;;;;7.33;3.75;;;11.50;99.90;;;;;;2070810;69;21054;-91
2022/12/21 00:04:47;;;;;;;6.28;3.90;;;11.50;99.90;;;;;;2037407;69;21077;-90
2022/12/21 00:07:39;;;;;;;7.12;3.50;;;11.50;99.90;;;;;;2035738;70;21027;-90
2022/12/21 00:10:32;;;;;;;5.97;3.02;;;11.50;99.90;;;;;;2035459;70;21490;-90
2022/12/21 00:13:30;;;;;;;5.15;3.37;;;11.60;99.90;;;;;;2032925;70;21166;-90
2022/12/21 00:16:24;;;;;;;5.28;2.98;;;11.70;99.90;;;;;;2032807;70;21078;-91
2022/12/21 00:19:18;;;;;;;4.72;3.47;;;11.70;99.90;;;;;;2040528;70;21831;-91
2022/12/21 00:22:12;;;;;;;5.50;3.58;;;11.70;99.90;;;;;;2067452;69;21145;-90
2022/12/21 00:25:05;;;;;;;4.25;3.47;;;11.70;99.90;;;;;;2043005;69;21131;-90
2022/12/21 00:27:57;;;;;;;6.60;3.77;;;11.60;99.90;;;;;;2029519;70;21094;-91
2022/12/21 00:30:52;;;;;;;5.83;3.85;;;11.60;99.90;;;;;;2028732;71;21096;-90
2022/12/21 00:33:46;;;;;;;8.45;4.08;;;11.60;99.90;;;;;;2025378;71;21079;-90
2022/12/21 00:36:37;;;;;;;5.78;4.12;;;11.50;99.90;;;;;;2018778;71;21083;-90
2022/12/21 00:39:28;;;;;;;6.00;3.80;;;11.40;99.90;;;;;;1979803;72;21672;-91
2022/12/21 00:42:20;;;;;;;6.97;4.08;;;11.40;99.90;;;;;;2023101;71;21019;-91
2022/12/21 00:45:13;;;;;;;6.83;3.83;;;11.40;99.90;;;;;;2018159;71;21144;-91
2022/12/21 00:48:05;;;;;;;6.78;4.03;;;11.40;99.90;;;;;;2017435;71;21042;-90
2022/12/21 00:51:04;;;;;;;8.30;4.50;;;11.40;99.90;;;;;;2017554;69;21160;-91
2022/12/21 00:54:08;;;;;;;7.03;4.67;;;11.40;99.90;;;;;;2039670;70;21082;-91
2022/12/21 00:57:00;;;;;;;7.35;4.58;;;11.30;99.90;;;;;;2055628;70;21062;-91
2022/12/21 00:59:52;;;;;;;7.08;4.65;;;11.30;99.90;;;;;;2018026;71;21094;-91
2022/12/21 01:02:44;;;;;;;8.48;5.12;;;11.20;99.90;;;;;;2050977;70;21035;-90
2022/12/21 01:05:37;;;;;;;7.03;4.78;;;11.10;99.90;;;;;;2055260;70;21042;-90
2022/12/21 01:08:32;;;;;;;7.17;4.65;;;11.10;99.90;;;;;;2055168;70;21108;-91
2022/12/21 01:11:27;;;;;;;6.97;4.97;;;11.10;99.90;;;;;;2017394;71;21155;-91
2022/12/21 01:14:19;;;;;;;7.08;4.30;;;11.00;99.90;;;;;;2018779;71;21039;-90
2022/12/21 01:17:10;;;;;;;7.42;4.67;;;11.00;99.90;;;;;;2018424;71;21131;-91
2022/12/21 01:20:02;;;;;;;8.38;4.95;;;10.90;99.90;;;;;;2017416;70;21086;-90
2022/12/21 01:22:55;;;;;;;7.30;4.97;;;10.90;99.90;;;;;;2036289;70;21127;-90
2022/12/21 01:25:47;;;;;;;6.08;4.53;;;10.80;99.90;;;;;;2020665;71;21067;-91
2022/12/21 01:28:39;;;;;;;7.10;4.67;;;10.90;99.90;;;;;;2026444;70;21118;-91
2022/12/21 01:31:34;;;;;;;5.17;4.10;;;10.90;99.90;;;;;;2052951;70;21075;-91
2022/12/21 01:34:26;;;;;;;5.53;3.65;;;10.90;99.90;;;;;;2017733;71;21128;-91
2022/12/21 01:37:23;;;;;;;5.22;3.67;;;10.90;99.90;;;;;;2018656;71;21089;-91
2022/12/21 01:40:24;;;;;;;8.08;4.28;;;10.90;99.90;;;;;;2017848;71;21150;-89
2022/12/21 01:43:43;;;;;;;6.47;4.17;;;11.00;99.90;;;;;;2052137;70;21145;-91
2022/12/21 01:46:47;;;;;;;6.42;4.08;;;10.90;99.90;;;;;;1991327;70;21131;-90
2022/12/21 01:50:05;;;;;;;7.87;4.42;;;10.90;99.90;;;;;;2023265;70;21108;-91
2022/12/21 01:53:07;;;;;;;5.95;4.03;;;11.00;99.90;;;;;;2018972;71;21066;-91
2022/12/21 01:56:07;;;;;;;9.43;4.12;;;11.00;99.90;;;;;;2048946;70;21144;-90
2022/12/21 01:59:22;;;;;;;6.00;4.15;;;10.90;99.90;;;;;;2052748;70;21124;-89
2022/12/21 02:02:21;;;;;;;6.80;4.05;;;10.80;99.90;;;;;;2018205;71;21054;-92
2022/12/21 02:05:20;;;;;;;7.17;4.12;;;10.70;99.90;;;;;;2018052;71;21056;-92
2022/12/21 02:08:13;;;;;;;6.50;4.03;;;10.70;99.90;;;;;;2017452;71;21074;-90
2022/12/21 02:11:09;;;;;;;7.53;4.03;;;10.70;99.90;;;;;;2019302;71;21111;-90
2022/12/21 02:14:11;;;;;;;5.30;3.67;;;10.70;99.90;;;;;;2017333;71;21075;-90
2022/12/21 02:17:10;;;;;;;6.15;4.17;;;10.80;99.90;;;;;;2019542;71;21098;-91
2022/12/21 02:24:00;;;;;;;6.17;4.55;;;10.70;99.90;;;;;;1940757;72;28057;-92
2022/12/21 02:27:23;;;;;;;5.90;4.12;;;10.90;99.90;;;;;;1877697;75;21110;-91
2022/12/21 02:30:19;;;;;;;6.08;4.35;;;10.80;99.90;;;;;;1896208;75;21095;-90
2022/12/21 02:33:22;;;;;;;6.42;4.15;;;10.70;99.90;;;;;;1892562;75;21132;-90
2022/12/21 02:36:24;;;;;;;6.12;4.15;;;10.60;99.90;;;;;;1907714;75;21136;-90
2022/12/21 02:39:22;;;;;;;6.58;4.42;;;10.50;99.90;;;;;;1899229;75;21150;-90
2022/12/21 02:45:36;;;;;;;5.97;4.10;;;10.50;99.90;;;;;;1901454;75;21094;-90
2022/12/21 02:48:32;;;;;;;5.12;3.85;;;10.40;99.90;;;;;;1896372;75;21153;-90
2022/12/21 02:54:15;;;;;;;6.60;4.85;;;10.40;99.90;;;;;;1937412;72;28102;-92
2022/12/21 02:57:15;;;;;;;7.33;4.10;;;10.50;99.90;;;;;;1916965;75;21105;-90
2022/12/21 03:00:17;;;;;;;7.05;4.22;;;10.50;99.90;;;;;;1901300;75;21076;-92
2022/12/21 03:06:44;;;;;;;6.85;3.87;;;10.30;99.90;;;;;;1899232;75;21047;-90
2022/12/21 03:09:40;;;;;;;6.55;3.90;;;10.30;99.90;;;;;;1917496;75;21099;-90
2022/12/21 03:12:41;;;;;;;5.60;3.67;;;10.40;99.90;;;;;;1886403;75;21047;-90
2022/12/21 03:15:39;;;;;;;7.80;3.60;;;10.30;99.90;;;;;;1906326;75;21058;-89
2022/12/21 03:18:40;;;;;;;5.83;3.42;;;10.30;99.90;;;;;;1869692;76;21109;-90
2022/12/21 03:21:36;;;;;;;6.28;3.75;;;10.40;99.90;;;;;;1906011;75;21157;-90
2022/12/21 03:24:31;;;;;;;4.60;3.47;;;10.40;99.90;;;;;;1901627;75;21153;-92
2022/12/21 03:27:25;;;;;;;6.35;4.08;;;10.40;99.90;;;;;;1897758;75;21056;-91
2022/12/21 03:30:19;;;;;;;5.42;3.70;;;10.30;99.90;;;;;;1896890;75;21157;-90
2022/12/21 03:33:14;;;;;;;6.45;3.98;;;10.30;99.90;;;;;;1919819;75;21020;-91
2022/12/21 03:36:10;;;;;;;5.22;3.85;;;10.20;99.90;;;;;;1919788;75;21043;-89
2022/12/21 03:39:05;;;;;;;6.25;3.55;;;10.10;99.90;;;;;;1918823;75;21086;-90
2022/12/21 03:42:00;;;;;;;5.12;3.50;;;10.10;99.90;;;;;;1885608;76;21114;-90
2022/12/21 03:44:55;;;;;;;6.83;3.75;;;10.30;99.90;;;;;;1907013;75;21134;-90
2022/12/21 03:47:50;;;;;;;4.97;3.17;;;10.30;99.90;;;;;;1907236;75;21148;-91
2022/12/21 03:50:45;;;;;;;5.83;3.40;;;10.30;99.90;;;;;;1884900;76;21098;-90
2022/12/21 03:53:41;;;;;;;6.55;4.08;;;10.20;99.90;;;;;;1896427;75;21192;-90
2022/12/21 03:56:42;;;;;;;6.35;4.03;;;10.20;99.90;;;;;;1886027;75;21079;-91
2022/12/21 03:59:42;;;;;;;5.95;3.62;;;10.20;99.90;;;;;;1873392;75;21571;-92
2022/12/21 04:02:36;;;;;;;5.80;3.62;;;10.20;99.90;;;;;;1900599;75;21091;-91
2022/12/21 04:05:30;;;;;;;3.92;3.30;;;10.20;99.90;;;;;;1902241;75;21123;-91
2022/12/21 04:08:24;;;;;;;5.62;3.40;;;10.20;99.90;;;;;;1899825;75;21131;-91
2022/12/21 04:14:26;;;;;;;4.45;2.80;;;10.30;99.90;;;;;;1892166;75;21102;-90
2022/12/21 04:17:26;;;;;;;3.70;2.95;;;10.30;99.90;;;;;;1878875;75;21096;-90
2022/12/21 04:20:19;;;;;;;5.17;3.17;;;10.40;99.90;;;;;;1913826;75;21634;-91
2022/12/21 04:29:29;;;;;;;5.92;3.12;;;10.40;99.90;;;;;;1886393;75;21117;-91
2022/12/21 04:32:22;;;;;;;6.40;3.33;;;10.40;99.90;;;;;;1884441;76;21176;-90
2022/12/21 04:35:15;;;;;;;8.40;3.50;;;10.40;99.90;;;;;;1884205;76;21095;-90
2022/12/21 04:38:15;;;;;;;4.97;3.47;;;10.20;99.90;;;;;;1907264;75;21101;-91
2022/12/21 04:41:07;;;;;;;4.58;3.40;;;10.30;99.90;;;;;;1906422;75;21094;-91
2022/12/21 04:44:00;;;;;;;4.42;3.17;;;10.30;99.90;;;;;;1902820;75;21043;-91
2022/12/21 04:46:52;;;;;;;4.78;2.98;;;10.20;99.90;;;;;;1884517;76;21212;-91
2022/12/21 04:49:43;;;;;;;4.47;3.12;;;10.30;99.90;;;;;;1893992;75;21103;-91
2022/12/21 04:52:35;;;;;;;5.28;3.08;;;10.40;99.90;;;;;;1872046;77;21067;-91
2022/12/21 04:55:26;;;;;;;8.10;3.17;;;10.40;99.90;;;;;;1907172;74;21192;-92
2022/12/21 04:58:18;;;;;;;5.42;2.98;;;10.30;99.90;;;;;;1907358;74;21090;-92
2022/12/21 05:04:05;;;;;;;6.20;4.22;;;10.40;99.90;;;;;;1959750;72;38391;-91
2022/12/21 05:06:57;;;;;;;6.45;3.52;;;10.50;99.90;;;;;;1930712;73;21224;-91
2022/12/21 05:09:49;;;;;;;6.22;3.60;;;10.40;99.90;;;;;;1917831;75;21124;-91
2022/12/21 05:12:40;;;;;;;4.65;3.27;;;10.40;99.90;;;;;;1918085;75;21075;-90
2022/12/21 05:15:34;;;;;;;5.45;3.10;;;10.30;99.90;;;;;;1917962;75;21216;-91
2022/12/21 05:18:36;;;;;;;3.62;2.92;;;10.30;99.90;;;;;;1917995;75;21699;-91
2022/12/21 05:21:29;;;;;;;6.37;3.42;;;10.30;99.90;;;;;;1917739;75;21051;-91
2022/12/21 05:24:25;;;;;;;4.17;3.00;;;10.20;99.90;;;;;;1919996;75;21042;-91
2022/12/21 05:27:17;;;;;;;3.87;2.50;;;10.20;99.90;;;;;;1918410;75;21094;-92
2022/12/21 05:32:51;;;;;;;5.78;3.35;;;10.30;99.90;;;;;;1980139;72;22278;-92
2022/12/21 05:35:42;;;;;;;4.55;3.02;;;10.20;99.90;;;;;;1906597;75;21141;-92
2022/12/21 05:38:34;;;;;;;5.50;2.87;;;10.20;99.90;;;;;;1905560;75;21099;-91
2022/12/21 05:41:26;;;;;;;3.95;2.65;;;10.20;99.90;;;;;;1931737;74;21095;-92
2022/12/21 05:44:18;;;;;;;5.53;2.98;;;10.30;99.90;;;;;;1918905;74;21100;-92
2022/12/21 05:47:09;;;;;;;4.50;2.90;;;10.30;99.90;;;;;;1906099;75;21146;-92
2022/12/21 05:50:17;;;;;;;6.15;3.08;;;10.30;99.90;;;;;;1905660;75;21139;-93
2022/12/21 05:53:04;;;;;;;6.00;3.25;;;10.30;99.90;;;;;;1928037;74;21098;-91
2022/12/21 05:55:57;;;;;;;4.60;2.83;;;10.20;99.90;;;;;;1905312;75;21114;-92
2022/12/21 05:58:50;;;;;;;4.47;2.92;;;10.20;99.90;;;;;;1924735;74;21512;-92
2022/12/21 06:01:43;;;;;;;4.70;3.20;;;10.30;99.90;;;;;;1924825;74;21163;-93
2022/12/21 06:04:37;;;;;;;5.00;2.77;;;10.20;99.90;;;;;;1871077;77;21103;-92
2022/12/21 06:07:30;;;;;;;4.87;2.80;;;10.30;99.90;;;;;;1906191;75;21106;-91
2022/12/21 06:10:26;;;;;;;5.58;3.20;;;10.30;99.90;;;;;;1905932;75;21077;-91
2022/12/21 06:13:25;;;;;;;4.95;2.70;;;10.30;99.90;;;;;;1915374;74;21040;-92
2022/12/21 06:16:23;;;;;;;5.30;2.70;;;10.30;99.90;;;;;;1905536;75;21165;-91
2022/12/21 06:19:21;;;;;;;3.67;2.62;;;10.30;99.90;;;;;;1905100;75;21548;-89
2022/12/21 06:22:19;;;;;;;3.60;2.20;;;10.30;99.90;;;;;;1928540;74;21170;-89
2022/12/21 06:25:12;;;;;;;5.37;2.60;;;10.30;99.90;;;;;;1905225;75;21160;-89
2022/12/21 06:28:04;;;;;;;5.92;2.40;;;10.30;99.90;;;;;;1905351;75;21118;-89
2022/12/21 06:30:56;;;;;;;3.80;2.20;;;10.40;99.90;;;;;;1908849;74;21738;-90
2022/12/21 06:33:48;;;;;;;4.28;2.40;;;10.40;99.90;;;;;;1882186;76;21197;-90
2022/12/21 06:36:40;;;;;;;3.98;2.40;;;10.40;99.90;;;;;;1810778;77;21099;-89
2022/12/21 06:39:32;;;;;;;3.55;2.30;;;10.40;99.90;;;;;;1938499;74;21099;-90
2022/12/21 06:42:24;;;;;;;3.75;2.35;;;10.50;99.90;;;;;;1929257;74;21189;-89
2022/12/21 06:45:16;;;;;;;4.33;2.33;;;10.40;99.90;;;;;;1908678;74;21056;-90
2022/12/21 06:48:10;;;;;;;4.10;2.70;;;10.50;99.90;;;;;;1905717;74;21190;-89
2022/12/21 06:51:14;;;;;;;5.67;2.77;;;10.50;99.90;;;;;;1906657;74;21566;-89
2022/12/21 06:54:24;;;;;;;5.80;3.40;;;10.50;99.90;;;;;;1926777;74;21040;-90
2022/12/21 06:57:20;;;;;;;7.90;2.52;;;10.40;99.90;;;;;;1895319;76;21118;-90
2022/12/21 07:00:14;;;;;;;3.52;2.42;;;10.40;99.90;;;;;;1901041;75;21106;-90
2022/12/21 07:03:07;;;;;;;4.30;2.90;;;10.40;99.90;;;;;;1895474;75;21561;-90
2022/12/21 07:06:01;;;;;;;5.45;2.60;;;10.30;99.90;;;;;;1903499;75;21918;-91
2022/12/21 07:08:56;;;;;;;4.25;2.80;;;10.30;99.90;;;;;;1895568;74;21144;-90
2022/12/21 07:11:52;;;;;;;5.00;3.00;;;10.30;99.90;;;;;;1906995;74;21166;-89
2022/12/21 07:14:46;;;;;;;5.85;3.55;;;10.30;99.90;;;;;;1913402;74;21048;-91
2022/12/21 07:17:37;;;;;;;3.67;2.87;;;10.20;99.90;;;;;;1896010;75;21080;-92
2022/12/21 07:20:30;;;;;;;5.42;3.15;;;10.10;99.90;;;;;;1902656;75;21146;-92
2022/12/21 07:23:26;;;;;;;4.78;3.12;;;10.10;99.90;;;;;;1895494;75;21091;-91
2022/12/21 07:26:22;;;;;;;5.50;2.72;;;10.10;99.90;;;;;;1895390;76;21151;-91
2022/12/21 07:29:15;;;;;;;3.98;3.30;;;10.10;99.90;;;;;;1911423;74;21064;-91
2022/12/21 07:32:07;;;;;;;5.22;2.95;;;10.00;99.90;;;;;;1919768;74;21154;-93
2022/12/21 07:34:59;;;;;;;4.95;3.15;;;10.00;99.90;;;;;;1901148;75;21159;-92
2022/12/21 07:37:52;;;;;;;4.83;3.10;;;10.00;99.90;;;;;;1909455;75;21075;-91
2022/12/21 07:40:45;;;;;;;5.22;3.37;;;10.00;99.90;;;;;;1901666;75;21229;-92
2022/12/21 07:43:37;;;;;;;4.60;3.17;;;10.00;99.90;;;;;;1896150;75;21165;-92
2022/12/21 07:46:40;;;;;;;7.28;3.52;;;9.90;99.90;;;;;;1900077;75;21181;-93
2022/12/21 07:49:40;;;;;;;7.17;3.45;;;10.00;99.90;;;;;;1904547;75;21111;-92
2022/12/21 07:52:33;;;;;;;6.40;3.60;;;10.00;99.90;;;;;;1906059;75;21177;-92
2022/12/21 07:55:25;;;;;;;5.53;3.47;;;9.90;99.90;;;;;;1908328;75;21084;-92
2022/12/21 07:58:18;;;;;;;7.70;4.33;;;9.90;99.90;;;;;;1911876;74;21103;-92
2022/12/21 08:01:13;;;;;;;5.10;3.40;;;9.90;99.90;;;;;;1922574;74;21469;-91
2022/12/21 08:04:11;;;;;;;7.15;3.87;;;9.80;99.90;;;;;;1896961;75;21127;-92
2022/12/21 08:07:11;;;;;;;5.72;3.83;;;9.80;99.90;;;;;;1918345;74;21132;-90
2022/12/21 08:10:05;;;;;;;5.50;3.77;;;9.80;99.90;;;;;;1914104;74;21178;-90
2022/12/21 08:13:07;;;;;;;5.42;3.50;;;9.80;99.90;;;;;;1912500;74;21123;-92
2022/12/21 08:16:05;;;;;;;5.65;3.85;;;9.80;99.90;;;;;;1895604;75;21182;-92
2022/12/21 08:19:01;;;;;;;8.63;3.60;;;9.80;99.90;;;;;;1903783;74;21083;-91
2022/12/21 08:21:53;;;;;;;5.80;3.52;;;9.80;99.90;;;;;;1904818;74;21091;-91
2022/12/21 08:24:48;;;;;;;10.08;4.20;;;9.90;99.90;;;;;;1899582;75;21140;-91
2022/12/21 08:27:41;;;;;;;7.50;3.75;;;9.90;99.90;;;;;;1895773;75;21069;-91
2022/12/21 08:30:34;;;;;;;6.60;3.60;;;9.90;99.90;;;;;;1901144;75;21052;-91
2022/12/21 08:33:30;;;;;;;6.10;3.80;;;10.00;99.90;;;;;;1898356;75;21132;-91
2022/12/21 08:36:29;;;;;;;8.53;4.37;;;9.90;99.90;;;;;;1907838;74;21089;-92
2022/12/21 08:39:23;;;;;;;5.53;3.42;;;9.90;99.90;;;;;;1906375;74;21111;-91
2022/12/21 08:42:15;;;;;;;5.87;4.08;;;9.90;99.90;;;;;;1911398;75;21798;-92
2022/12/21 08:45:08;;;;;;;9.15;4.22;;;10.00;99.90;;;;;;1916289;74;21102;-91
2022/12/21 08:47:59;;;;;;;5.45;3.80;;;10.00;99.90;;;;;;1932055;74;21058;-91
2022/12/21 08:50:53;;;;;;;6.62;3.80;;;10.00;99.90;;;;;;1870278;77;21103;-91
2022/12/21 08:53:49;;;;;;;11.28;4.05;;;9.90;99.90;;;;;;1912593;74;21106;-91
2022/12/21 08:56:53;;;;;;;5.53;4.25;;;10.00;99.90;;;;;;1904397;75;21112;-92
2022/12/21 08:59:50;;;;;;;7.30;3.98;;;10.00;99.90;;;;;;1907653;75;21189;-91
2022/12/21 09:02:42;;;;;;;7.87;4.33;;;10.00;99.90;;;;;;1904750;75;21612;-91
2022/12/21 09:05:42;;;;;;;7.28;4.28;;;10.10;99.90;;;;;;1904635;75;21205;-90
2022/12/21 09:08:37;;;;;;;7.87;4.22;;;10.10;99.90;;;;;;1905049;75;21086;-91
2022/12/21 09:11:30;;;;;;;7.05;4.17;;;10.20;99.90;;;;;;1905587;75;21193;-91
2022/12/21 09:14:26;;;;;;;7.83;4.12;;;10.20;99.90;;;;;;1905005;75;21188;-92
2022/12/21 09:17:17;;;;;;;10.48;4.78;;;10.20;99.90;;;;;;1904381;75;21114;-90
2022/12/21 09:20:12;;;;;;;8.55;4.85;;;10.20;99.90;;;;;;1906996;74;21168;-91
2022/12/21 09:23:03;;;;;;;8.98;5.40;;;10.20;99.90;;;;;;1938262;74;21177;-91
2022/12/21 09:25:56;;;;;;;10.68;5.20;;;10.20;99.90;;;;;;1938257;74;21078;-91
2022/12/21 09:28:47;;;;;;;7.92;4.62;;;10.20;99.90;;;;;;1905833;74;21103;-91
2022/12/21 09:31:39;;;;;;;9.70;4.97;;;10.30;99.90;;;;;;1905208;75;21566;-90
2022/12/21 09:34:32;;;;;;;9.68;4.75;;;10.30;99.90;;;;;;1907181;75;21270;-91
2022/12/21 09:37:24;;;;;;;6.90;4.08;;;10.30;99.90;;;;;;1891013;75;21704;-91
2022/12/21 09:40:22;;;;;;;9.10;4.00;;;10.30;99.90;;;;;;1890680;76;21314;-91
2022/12/21 09:46:45;;;;;;;11.00;6.17;;;10.30;99.90;;;;;;1978100;71;22086;-92
2022/12/21 09:49:43;;;;;;;10.13;6.53;;;10.40;99.90;;;;;;1953740;73;21085;-92
2022/12/21 09:52:46;;;;;;;8.03;5.28;;;10.50;99.90;;;;;;2032359;70;21140;-91
2022/12/21 09:55:47;;;;;;;8.05;5.58;;;10.50;99.90;;;;;;2035260;70;21074;-92
2022/12/21 09:58:42;;;;;;;14.25;5.83;;;10.60;99.90;;;;;;2034775;70;21191;-91
2022/12/21 10:01:42;;;;;;;12.47;5.58;;;10.60;99.90;;;;;;2034726;70;21078;-90
2022/12/21 10:04:48;;;;;;;9.70;5.55;;;10.50;99.90;;;;;;2032697;70;21047;-91
2022/12/21 10:08:34;;;;;;;9.25;5.30;;;10.50;99.90;;;;;;2034999;70;21277;-91
2022/12/21 10:11:41;;;;;;;16.37;6.10;;;10.60;99.90;;;;;;2005240;70;21157;-91
2022/12/21 10:32:19;;;;;;;13.15;5.55;;;10.70;99.90;;;;;;2036696;69;22206;-92
2022/12/21 11:10:26;;;;;;;8.28;6.00;;;11.10;99.90;;;;;;1990690;71;22120;-92
2022/12/21 11:13:30;;;;;;;11.33;6.22;;;11.10;99.90;;;;;;1953211;73;21144;-91
2022/12/21 11:16:23;;;;;;;10.75;5.47;;;11.10;99.90;;;;;;2032317;70;21144;-91
2022/12/21 11:36:27;;;;;;;8.30;5.95;;;11.10;99.90;;;;;;1943158;74;22188;-91
2022/12/21 11:39:27;;;;;;;8.80;5.60;;;11.20;99.90;;;;;;1884578;76;21109;-90
2022/12/21 11:42:22;;;;;;;9.53;6.28;;;11.20;99.90;;;;;;1891268;76;21141;-91
2022/12/21 11:45:22;;;;;;;11.63;7.17;;;11.30;99.90;;;;;;1905593;74;21097;-90
2022/12/21 11:48:23;;;;;;;16.52;7.50;;;11.30;99.90;;;;;;1924392;74;21109;-91
2022/12/21 11:51:28;;;;;;;12.88;8.05;;;11.30;99.90;;;;;;1924398;74;21139;-91
2022/12/21 11:57:17;;;;;;;13.13;8.33;;;11.10;99.90;;;;;;1953394;72;22145;-91
2022/12/21 12:00:14;;;;;;;13.25;8.08;;;11.10;99.90;;;;;;1884796;76;21724;-91
2022/12/21 12:03:23;;;;;;;;;;;11.10;99.90;;;;;;1888444;76;21148;-91
2022/12/21 12:06:30;;;;;;;12.28;7.65;;;11.10;99.90;;;;;;1897091;75;20120;-91
2022/12/21 12:09:40;;;;;;;14.87;8.08;;;11.10;99.90;;;;;;1908978;75;21144;-90
2022/12/21 12:12:38;;;;;;;15.32;9.10;;;11.20;99.90;;;;;;1907297;75;21086;-91
2022/12/21 12:15:46;;;;;;;13.13;8.65;;;11.20;99.90;;;;;;1889120;75;21066;-93
2022/12/21 12:18:55;;;;;;;14.27;7.43;;;11.30;99.90;;;;;;1892862;75;21134;-91
2022/12/21 12:26:19;;;;;;;13.08;7.40;;;11.40;99.90;;;;;;1843587;74;21114;-90
2022/12/21 12:29:30;;;;;;;14.30;7.42;;;11.30;99.90;;;;;;1917948;75;21132;-91
2022/12/21 12:32:40;;;;;;;11.25;6.92;;;11.30;99.90;;;;;;1917756;75;21122;-91
2022/12/21 12:41:44;;;;;;;10.45;6.90;;;11.50;99.90;;;;;;2076055;68;22107;-89
2022/12/21 12:44:42;;;;;;;11.10;6.33;;;11.60;99.90;;;;;;2036949;70;21030;-91
2022/12/21 12:47:36;;;;;;;;;;;11.50;99.90;;;;;;2038962;70;21164;-91
2022/12/21 12:50:32;;;;;;;8.65;5.30;;;11.50;99.90;;;;;;2017638;70;20201;-90
2022/12/21 12:53:37;;;;;;;9.18;5.87;;;11.50;99.90;;;;;;2014953;70;21311;-91
2022/12/21 12:56:33;;;;;;;10.10;6.05;;;11.50;99.90;;;;;;2024346;70;21070;-91
2022/12/21 12:59:30;;;;;;;8.90;5.60;;;11.50;99.90;;;;;;2031101;70;21121;-90
2022/12/21 13:02:27;;;;;;;11.97;6.20;;;11.60;99.90;;;;;;2008874;70;21094;-91
2022/12/21 13:05:42;;;;;;;9.28;6.50;;;11.70;99.90;;;;;;1999606;72;21070;-90
2022/12/21 13:08:47;;;;;;;10.93;6.42;;;11.70;99.90;;;;;;1999493;70;21047;-92
2022/12/21 13:11:46;;;;;;;12.13;7.47;;;11.90;99.90;;;;;;2014396;70;21143;-92
2022/12/21 13:14:43;;;;;;;11.15;7.28;;;12.00;99.90;;;;;;1998856;72;21186;-91
2022/12/21 13:17:47;;;;;;;12.07;7.55;;;12.10;99.90;;;;;;2010923;70;21111;-90
2022/12/21 13:20:48;;;;;;;10.18;6.65;;;12.10;99.90;;;;;;2035741;70;21059;-90
2022/12/21 13:23:44;;;;;;;7.47;6.47;;;12.10;99.90;;;;;;2029522;70;21030;-90
2022/12/21 13:26:39;;;;;;;10.30;6.95;;;12.00;99.90;;;;;;2023910;70;21074;-92
2022/12/21 13:29:35;;;;;;;11.33;7.40;;;12.00;99.90;;;;;;1998970;72;21070;-92
2022/12/21 13:32:31;;;;;;;11.08;6.90;;;11.90;99.90;;;;;;2000139;72;21070;-94
2022/12/21 13:35:33;;;;;;;11.95;6.60;;;11.90;99.90;;;;;;2002350;72;21057;-90
2022/12/21 13:38:34;;;;;;;9.70;5.53;;;11.90;99.90;;;;;;1999870;72;21092;-91
2022/12/21 13:41:41;;;;;;;11.57;6.10;;;11.90;99.90;;;;;;1991417;71;21131;-91
2022/12/21 13:44:37;;;;;;;9.65;5.37;;;11.90;99.90;;;;;;2012661;71;21184;-91
2022/12/21 13:47:32;;;;;;;8.10;5.40;;;12.00;99.90;;;;;;2024305;71;21169;-91
2022/12/21 13:50:32;;;;;;;9.15;6.00;;;12.00;99.90;;;;;;1985486;72;21125;-91
2022/12/21 13:56:17;;;;;;;7.20;5.28;;;12.10;99.90;;;;;;1957769;72;22212;-92
2022/12/21 13:59:16;;;;;;;9.33;6.17;;;12.20;99.90;;;;;;1917440;75;21094;-91
2022/12/21 14:02:12;;;;;;;8.55;5.45;;;12.20;99.90;;;;;;1917554;75;21445;-91
2022/12/21 14:05:12;;;;;;;8.50;5.80;;;12.20;99.90;;;;;;1900488;75;21589;-91
2022/12/21 14:08:42;;;;;;;8.23;5.72;;;12.30;99.90;;;;;;1910084;75;21092;-91
2022/12/21 14:12:02;;;;;;;10.35;5.28;;;12.30;99.90;;;;;;1902392;75;21087;-91
2022/12/21 14:15:29;;;;;;;7.45;5.40;;;12.30;99.90;;;;;;1885058;76;21098;-90
2022/12/21 14:18:24;;;;;;;7.45;5.35;;;12.30;99.90;;;;;;1886459;76;21102;-90
2022/12/21 14:21:23;;;;;;;9.48;5.45;;;12.30;99.90;;;;;;1887142;76;21067;-89
2022/12/21 14:24:21;;;;;;;7.55;5.58;;;12.20;99.90;;;;;;1884707;76;21211;-90
2022/12/21 14:27:56;;;;;;;7.75;5.17;;;12.20;99.90;;;;;;1884780;76;21328;-93
2022/12/21 14:31:03;;;;;;;7.90;6.03;;;12.20;99.90;;;;;;1884688;76;21137;-92
2022/12/21 14:34:00;;;;;;;7.92;5.67;;;12.30;99.90;;;;;;1885187;76;21131;-90
2022/12/21 14:37:24;;;;;;;7.25;5.40;;;12.20;99.90;;;;;;1915756;75;21114;-92
2022/12/21 14:40:28;;;;;;;9.08;5.83;;;12.20;99.90;;;;;;1889657;75;21062;-91
2022/12/21 14:43:20;;;;;;;7.40;4.35;;;12.10;99.90;;;;;;1889189;75;21137;-91
2022/12/21 14:46:28;;;;;;;8.73;4.95;;;12.10;99.90;;;;;;1917590;75;21120;-91
2022/12/21 14:49:29;;;;;;;9.28;4.83;;;12.10;99.90;;;;;;1917472;75;21310;-91
2022/12/21 14:52:34;;;;;;;7.83;4.80;;;12.10;99.90;;;;;;1892993;75;21058;-91
2022/12/21 14:55:36;;;;;;;7.30;4.83;;;12.10;99.90;;;;;;1891241;75;21105;-91
2022/12/21 14:58:32;;;;;;;7.33;4.50;;;12.10;99.90;;;;;;1901421;75;21147;-89
2022/12/21 15:01:39;;;;;;;7.73;5.47;;;12.10;99.90;;;;;;1913229;74;21138;-91
2022/12/21 15:04:34;;;;;;;8.23;4.37;;;12.10;99.90;;;;;;1868163;76;21776;-92
2022/12/21 15:07:31;;;;;;;5.50;4.20;;;12.00;99.90;;;;;;1889679;76;21100;-91
2022/12/21 15:10:27;;;;;;;6.78;5.15;;;11.90;99.90;;;;;;1888752;76;21126;-91
2022/12/21 15:13:23;;;;;;;8.08;4.97;;;11.90;99.90;;;;;;1857919;76;21167;-91
2022/12/21 15:16:23;;;;;;;7.05;4.50;;;11.90;99.90;;;;;;1846528;78;21122;-91
2022/12/21 15:19:18;;;;;;;8.53;4.72;;;11.90;99.90;;;;;;1853508;77;21208;-90
2022/12/21 15:22:38;;;;;;;9.28;6.40;;;11.90;99.90;;;;;;1846185;76;21087;-90
2022/12/21 15:25:34;;;;;;;10.25;5.60;;;11.90;99.90;;;;;;1878621;76;21116;-91
2022/12/21 15:28:34;;;;;;;6.35;4.90;;;11.80;99.90;;;;;;1847135;76;21116;-91
2022/12/21 15:31:41;;;;;;;12.58;6.10;;;11.70;99.90;;;;;;1878104;76;21099;-91
2022/12/21 15:34:42;;;;;;;8.78;5.50;;;11.70;99.90;;;;;;1878117;76;21123;-92
2022/12/21 15:37:36;;;;;;;9.18;5.95;;;11.70;99.90;;;;;;1857956;77;21207;-92
2022/12/21 15:40:31;;;;;;;7.60;5.10;;;11.60;99.90;;;;;;1915124;74;21058;-91
2022/12/21 15:43:35;;;;;;;8.30;5.62;;;11.50;99.90;;;;;;1890033;76;21167;-91
2022/12/21 15:49:22;;;;;;;8.95;5.70;;;11.40;99.90;;;;;;1933861;72;22185;-92
2022/12/21 15:52:32;;;;;;;8.53;5.33;;;11.50;99.90;;;;;;1884814;76;21101;-91
2022/12/21 15:55:31;;;;;;;9.03;5.03;;;11.40;99.90;;;;;;1884649;76;21110;-90
2022/12/21 15:58:31;;;;;;;8.43;6.00;;;11.40;99.90;;;;;;1885466;76;21151;-91
2022/12/21 16:01:30;;;;;;;7.22;5.35;;;11.40;99.90;;;;;;1885325;76;21176;-92
2022/12/21 16:04:26;;;;;;;9.65;5.62;;;11.30;99.90;;;;;;1885321;76;21172;-92
2022/12/21 16:07:20;;;;;;;9.20;6.10;;;11.30;99.90;;;;;;1886252;76;21127;-91
2022/12/21 16:10:19;;;;;;;10.43;6.92;;;11.30;99.90;;;;;;1908072;75;21150;-92
2022/12/21 16:13:12;;;;;;;7.17;5.12;;;11.30;99.90;;;;;;1918041;75;21135;-93
2022/12/21 16:16:10;;;;;;;7.60;5.60;;;11.30;99.90;;;;;;1885676;76;21160;-91
2022/12/21 16:19:04;;;;;;;11.30;5.80;;;11.20;99.90;;;;;;1915839;75;21109;-91
2022/12/21 16:22:00;;;;;;;7.55;5.53;;;11.10;99.90;;;;;;1891178;75;21055;-91
2022/12/21 16:24:58;;;;;;;8.65;5.30;;;11.00;99.90;;;;;;1884982;76;21062;-92
2022/12/21 16:27:51;;;;;;;7.95;5.30;;;11.00;99.90;;;;;;1884986;76;21140;-91
2022/12/21 16:30:48;;;;;;;11.85;6.95;;;10.90;99.90;;;;;;1898375;75;21106;-91
2022/12/21 16:33:43;;;;;;;11.65;6.83;;;10.90;99.90;;;;;;1886423;75;21106;-92
2022/12/21 16:36:39;;;;;;;8.63;6.17;;;10.80;99.90;;;;;;1907408;75;21054;-92
2022/12/21 16:39:51;;;;;;;7.62;6.20;;;10.70;99.90;;;;;;1885289;76;21047;-92
2022/12/21 16:42:48;;;;;;;10.45;6.50;;;10.70;99.90;;;;;;1885491;76;21059;-91
2022/12/21 16:46:08;;;;;;;8.60;6.22;;;10.60;99.90;;;;;;1905020;75;21087;-92
2022/12/21 16:49:07;;;;;;;11.18;7.47;;;10.70;99.90;;;;;;1926132;74;21176;-93
2022/12/21 16:52:03;;;;;;;10.43;6.87;;;10.70;99.90;;;;;;1917348;74;21112;-92
2022/12/21 16:55:10;;;;;;;10.63;7.12;;;10.60;99.90;;;;;;1921852;74;21090;-92
2022/12/21 16:58:10;;;;;;;9.25;5.80;;;10.60;99.90;;;;;;1922958;74;21354;-92
2022/12/21 17:01:05;;;;;;;10.55;6.17;;;10.60;99.90;;;;;;1929923;74;21075;-92
2022/12/21 17:04:01;;;;;;;8.85;5.70;;;10.60;99.90;;;;;;1911602;74;21050;-93
2022/12/21 17:07:05;;;;;;;6.47;5.17;;;10.60;99.90;;;;;;1933424;74;21039;-92
2022/12/21 17:10:02;;;;;;;6.60;4.20;;;10.60;99.90;;;;;;1915858;74;21394;-93
2022/12/21 17:13:03;;;;;;;7.50;4.85;;;10.40;99.90;;;;;;1900163;75;21119;-92
2022/12/21 17:16:02;;;;;;;9.25;6.58;;;10.30;99.90;;;;;;1900733;75;21138;-90
2022/12/21 17:19:04;;;;;;;10.38;6.50;;;10.20;99.90;;;;;;1906751;74;21121;-91
2022/12/21 17:22:04;;;;;;;13.90;7.47;;;10.20;99.90;;;;;;1933484;74;21094;-93
2022/12/21 17:28:48;;;;;;;11.30;8.00;;;10.20;99.90;;;;;;1950696;72;22186;-91